createdAt,value
2019-01-11T00:00:02.148Z,2.5
2019-01-11T00:05:01.784Z,2.6
2019-01-11T00:10:01.692Z,2.6
2019-01-11T00:15:02.149Z,2.6
2019-01-11T00:20:03.591Z,2.6
2019-01-11T00:25:01.249Z,2.6
2019-01-11T00:30:01.965Z,2.7
2019-01-11T00:35:01.838Z,2.7
2019-01-11T00:40:01.677Z,2.8
2019-01-11T00:45:02.312Z,2.8
2019-01-11T00:50:02.037Z,2.8
2019-01-11T00:55:01.834Z,2.9
2019-01-11T01:00:02.406Z,2.9
2019-01-11T01:05:01.461Z,2.9
2019-01-11T01:10:01.280Z,2.9
2019-01-11T01:15:01.534Z,2.9
2019-01-11T01:20:02.105Z,3
2019-01-11T01:25:01.800Z,3
2019-01-11T01:30:01.707Z,3
2019-01-11T01:35:01.893Z,3.1
2019-01-11T01:40:01.318Z,3.1
2019-01-11T01:45:01.692Z,3.2
2019-01-11T01:50:01.429Z,3.2
2019-01-11T01:55:02.024Z,3.2
2019-01-11T02:00:01.971Z,3.3
2019-01-11T02:05:01.155Z,3.3
2019-01-11T02:10:02.077Z,3.4
2019-01-11T02:15:01.626Z,3.4
2019-01-11T02:20:01.450Z,3.5
2019-01-11T02:25:01.207Z,3.5
2019-01-11T02:30:02.257Z,3.6
2019-01-11T02:35:01.583Z,3.7
2019-01-11T02:40:01.440Z,3.7
2019-01-11T02:45:02.249Z,3.7
2019-01-11T02:50:01.908Z,3.8
2019-01-11T02:55:01.585Z,3.8
2019-01-11T03:00:01.944Z,3.9
2019-01-11T03:05:01.545Z,3.9
2019-01-11T03:10:01.430Z,3.9
2019-01-11T03:15:01.964Z,4
2019-01-11T03:20:01.987Z,4
2019-01-11T03:25:01.983Z,4
2019-01-11T03:30:01.453Z,4.1
2019-01-11T03:35:01.330Z,4.1
2019-01-11T03:40:01.995Z,4.2
2019-01-11T03:45:01.195Z,4.2
2019-01-11T03:50:01.542Z,4.2
2019-01-11T03:55:02.134Z,4.2
2019-01-11T04:00:01.458Z,4.3
2019-01-11T04:05:01.369Z,4.3
2019-01-11T04:10:02.075Z,4.3
2019-01-11T04:15:01.908Z,4.4
2019-01-11T04:20:02.441Z,4.4
2019-01-11T04:25:01.509Z,4.5
2019-01-11T04:30:01.952Z,4.6
2019-01-11T04:35:01.613Z,4.7
2019-01-11T04:40:01.757Z,4.8
2019-01-11T04:45:01.300Z,4.8
2019-01-11T04:50:01.463Z,4.9
2019-01-11T04:55:01.819Z,4.9
2019-01-11T05:00:02.130Z,5
2019-01-11T05:05:01.200Z,5.1
2019-01-11T05:10:02.111Z,5.2
2019-01-11T05:15:01.138Z,5.2
2019-01-11T05:20:01.360Z,5.3
2019-01-11T05:25:02.194Z,5.3
2019-01-11T05:30:01.750Z,5.4
2019-01-11T05:35:01.148Z,5.5
2019-01-11T05:40:01.644Z,5.5
2019-01-11T05:45:02.001Z,5.6
2019-01-11T05:50:01.975Z,5.7
2019-01-11T05:55:01.473Z,5.7
2019-01-11T06:00:01.376Z,5.8
2019-01-11T06:05:01.419Z,5.9
2019-01-11T06:10:03.059Z,5.9
2019-01-11T06:15:02.327Z,5.9
2019-01-11T06:20:01.592Z,6
2019-01-11T06:25:02.030Z,6
2019-01-11T06:30:01.429Z,6.1
2019-01-11T06:35:01.606Z,6.2
2019-01-11T06:40:01.892Z,6.2
2019-01-11T06:45:01.242Z,6.3
2019-01-11T06:50:01.664Z,6.4
2019-01-11T06:55:02.119Z,6.4
2019-01-11T07:00:01.211Z,6.4
2019-01-11T07:05:01.439Z,6.5
2019-01-11T07:10:01.603Z,6.5
2019-01-11T07:15:01.689Z,6.6
2019-01-11T07:20:05.433Z,6.6
2019-01-11T07:25:02.095Z,6.7
2019-01-11T07:30:01.400Z,6.8
2019-01-11T07:35:01.399Z,6.9
2019-01-11T07:40:01.995Z,6.9
2019-01-11T07:45:01.724Z,7
2019-01-11T07:50:01.419Z,7
2019-01-11T07:55:01.639Z,7
2019-01-11T08:00:02.000Z,7
2019-01-11T08:05:01.521Z,7.1
2019-01-11T08:10:01.501Z,7.2
2019-01-11T08:15:01.362Z,7.2
2019-01-11T08:20:02.066Z,7.3
2019-01-11T08:25:01.818Z,7.3
2019-01-11T08:30:01.357Z,7.3
2019-01-11T08:35:01.868Z,7.3
2019-01-11T08:40:02.034Z,7.3
2019-01-11T08:45:02.060Z,7.4
2019-01-11T08:50:02.002Z,7.4
2019-01-11T08:55:01.833Z,7.4
2019-01-11T09:00:02.055Z,7.4
2019-01-11T09:05:02.046Z,7.4
2019-01-11T09:10:02.259Z,7.4
2019-01-11T09:15:01.568Z,7.4
2019-01-11T09:20:01.244Z,7.5
2019-01-11T09:25:01.801Z,7.6
2019-01-11T09:30:01.848Z,7.6
2019-01-11T09:35:02.102Z,7.7
2019-01-11T09:40:01.883Z,7.8
2019-01-11T09:45:01.237Z,7.8
2019-01-11T09:50:02.115Z,7.8
2019-01-11T09:55:01.843Z,7.8
2019-01-11T10:00:01.751Z,7.9
2019-01-11T10:05:01.748Z,8
2019-01-11T10:10:01.853Z,8
2019-01-11T10:15:01.907Z,8
2019-01-11T10:20:01.769Z,8
2019-01-11T10:25:01.916Z,8.1
2019-01-11T10:30:01.571Z,8.1
2019-01-11T10:35:02.108Z,8.1
2019-01-11T10:40:01.153Z,8.3
2019-01-11T10:45:01.681Z,8.3
2019-01-11T10:50:01.622Z,8.3
2019-01-11T10:55:01.297Z,8.4
2019-01-11T11:00:02.237Z,8.5
2019-01-11T11:05:01.895Z,8.6
2019-01-11T11:10:01.292Z,8.8
2019-01-11T11:15:01.883Z,8.8
2019-01-11T11:20:01.780Z,8.9
2019-01-11T11:25:01.570Z,8.9
2019-01-11T11:30:02.056Z,8.8
2019-01-11T11:35:01.853Z,8.8
2019-01-11T11:40:01.714Z,8.8
2019-01-11T11:45:02.001Z,8.8
2019-01-11T11:50:01.774Z,8.8
2019-01-11T11:55:01.821Z,8.8
2019-01-11T12:00:01.380Z,8.8
2019-01-11T12:05:01.609Z,8.8
2019-01-11T12:10:01.958Z,9
2019-01-11T12:15:01.194Z,9
2019-01-11T12:20:02.190Z,9
2019-01-11T12:25:01.221Z,9.2
2019-01-11T12:30:01.605Z,9.2
2019-01-11T12:35:01.470Z,9.2
2019-01-11T12:40:01.605Z,9.2
2019-01-11T12:45:01.412Z,9.1
2019-01-11T12:50:01.429Z,9
2019-01-11T12:55:01.525Z,9
2019-01-11T13:00:01.818Z,9
2019-01-11T13:05:01.569Z,9
2019-01-11T13:10:01.836Z,9
2019-01-11T13:15:01.240Z,9
2019-01-11T13:20:02.066Z,9.2
2019-01-11T13:25:01.186Z,9.1
2019-01-11T13:30:02.215Z,9
2019-01-11T13:35:01.294Z,9
2019-01-11T13:40:02.115Z,9
2019-01-11T13:45:01.692Z,9
2019-01-11T13:50:01.895Z,8.9
2019-01-11T13:55:01.979Z,8.9
2019-01-11T14:00:01.505Z,8.8
2019-01-11T14:05:01.885Z,8.7
2019-01-11T14:10:01.519Z,8.6
2019-01-11T14:15:01.486Z,8.5
2019-01-11T14:20:01.422Z,8.4
2019-01-11T14:25:01.300Z,8.3
2019-01-11T14:30:01.761Z,8.2
2019-01-11T14:35:01.596Z,8.1
2019-01-11T14:40:01.254Z,8.1
2019-01-11T14:45:01.591Z,8
2019-01-11T14:50:01.378Z,8
2019-01-11T14:55:01.486Z,7.9
2019-01-11T15:00:01.789Z,7.9
2019-01-11T15:05:02.301Z,7.8
2019-01-11T15:10:01.277Z,7.8
2019-01-11T15:15:02.113Z,7.7
2019-01-11T15:20:01.891Z,7.6
2019-01-11T15:25:01.485Z,7.5
2019-01-11T15:30:01.715Z,7.4
2019-01-11T15:35:01.554Z,7.3
2019-01-11T15:40:01.607Z,7.2
2019-01-11T15:45:01.163Z,7.1
2019-01-11T15:50:01.952Z,7
2019-01-11T15:55:02.020Z,7
2019-01-11T16:00:01.303Z,6.9
2019-01-11T16:05:01.374Z,6.9
2019-01-11T16:10:01.472Z,6.9
2019-01-11T16:15:01.387Z,6.8
2019-01-11T16:20:01.226Z,6.7
2019-01-11T16:25:01.666Z,6.7
2019-01-11T16:30:02.056Z,6.7
2019-01-11T16:35:02.072Z,6.6
2019-01-11T16:40:01.923Z,6.6
2019-01-11T16:45:01.930Z,6.5
2019-01-11T16:50:02.041Z,6.4
2019-01-11T16:55:01.501Z,6.4
2019-01-11T17:00:01.318Z,6.3
2019-01-11T17:05:01.326Z,6.3
2019-01-11T17:10:01.533Z,6.2
2019-01-11T17:15:01.536Z,6.2
2019-01-11T17:20:01.394Z,6.2
2019-01-11T17:25:02.117Z,6.1
2019-01-11T17:30:01.580Z,6.1
2019-01-11T17:35:01.692Z,6.1
2019-01-11T17:40:01.653Z,6.1
2019-01-11T17:45:01.558Z,6.1
2019-01-11T17:50:01.989Z,6
2019-01-11T17:55:01.795Z,6
2019-01-11T18:00:01.725Z,6
2019-01-11T18:05:01.388Z,6
2019-01-11T18:10:02.099Z,6
2019-01-11T18:15:01.684Z,5.9
2019-01-11T18:20:01.643Z,5.9
2019-01-11T18:25:01.409Z,5.8
2019-01-11T18:30:02.001Z,5.8
2019-01-11T18:35:01.785Z,5.8
2019-01-11T18:40:01.713Z,5.7
2019-01-11T18:45:01.363Z,5.7
2019-01-11T18:50:01.982Z,5.6
2019-01-11T18:55:01.297Z,5.5
2019-01-11T19:00:01.820Z,5.5
2019-01-11T19:05:01.568Z,5.5
2019-01-11T19:10:01.276Z,5.5
2019-01-11T19:15:01.140Z,5.4
2019-01-11T19:20:01.436Z,5.4
2019-01-11T19:25:01.615Z,5.4
2019-01-11T19:30:01.935Z,5.3
2019-01-11T19:35:02.181Z,5.3
2019-01-11T19:40:01.602Z,5.3
2019-01-11T19:45:01.309Z,5.2
2019-01-11T19:50:01.574Z,5.2
2019-01-11T19:55:01.600Z,5.1
2019-01-11T20:00:01.994Z,5.1
2019-01-11T20:05:02.078Z,5
2019-01-11T20:10:01.457Z,5
2019-01-11T20:15:01.843Z,5
2019-01-11T20:20:01.686Z,5
2019-01-11T20:25:01.645Z,5
2019-01-11T20:30:02.175Z,4.9
2019-01-11T20:35:01.447Z,4.9
2019-01-11T20:40:02.027Z,4.9
2019-01-11T20:45:01.229Z,4.8
2019-01-11T20:50:02.039Z,4.8
2019-01-11T20:55:01.235Z,4.7
2019-01-11T21:00:02.080Z,4.7
2019-01-11T21:05:01.471Z,4.7
2019-01-11T21:10:01.824Z,4.7
2019-01-11T21:15:02.213Z,4.6
2019-01-11T21:20:01.922Z,4.6
2019-01-11T21:25:01.429Z,4.6
2019-01-11T21:30:02.156Z,4.6
2019-01-11T21:35:01.583Z,4.6
2019-01-11T21:40:01.490Z,4.6
2019-01-11T21:45:02.004Z,4.6
2019-01-11T21:50:02.460Z,4.6
2019-01-11T21:55:01.345Z,4.5
2019-01-11T22:00:01.624Z,4.5
2019-01-11T22:05:01.350Z,4.5
2019-01-11T22:10:02.107Z,4.4
2019-01-11T22:15:01.160Z,4.4
2019-01-11T22:20:01.678Z,4.4
2019-01-11T22:25:02.187Z,4.4
2019-01-11T22:30:01.888Z,4.4
2019-01-11T22:35:01.776Z,4.3
2019-01-11T22:40:02.206Z,4.3
2019-01-11T22:45:01.756Z,4.3
2019-01-11T22:50:02.019Z,4.3
2019-01-11T22:55:01.810Z,4.3
2019-01-11T23:00:01.400Z,4.3
2019-01-11T23:05:01.540Z,4.3
2019-01-11T23:10:01.983Z,4.3
2019-01-11T23:15:01.243Z,4.3
2019-01-11T23:20:01.969Z,4.2
2019-01-11T23:25:01.446Z,4.2
2019-01-11T23:30:01.336Z,4.2
2019-01-11T23:35:01.884Z,4.3
2019-01-11T23:40:01.678Z,4.3
2019-01-11T23:45:01.320Z,4.3
2019-01-11T23:50:02.326Z,4.4
2019-01-11T23:55:01.431Z,4.4
